Time;durP1;ratioP1;P1;durP2;ratioP2;P2;SDS_P1;SDS_P2;PMS_P1;PMS_P2;Temp;Humidity;BMP_temperature;BMP_pressure;BME280_temperature;BME280_humidity;BME280_pressure;Samples;Min_cycle;Max_cycle;Signal;HPM_P1;HPM_P2
2023/07/06 00:01:26;;;;;;;6.93;3.97;;;;;;;;;;5014819;28;92469;-73
2023/07/06 00:03:56;;;;;;;17.17;4.82;;;;;;;;;;5017794;28;94220;-72
2023/07/06 00:06:23;;;;;;;10.38;4.57;;;;;;;;;;5014544;28;92594;-73
2023/07/06 00:08:52;;;;;;;8.93;4.28;;;;;;;;;;5014005;28;92434;-73
2023/07/06 00:11:22;;;;;;;11.50;4.63;;;;;;;;;;5014100;28;93111;-73
2023/07/06 00:13:48;;;;;;;9.25;4.43;;;;;;;;;;5014626;28;92414;-73
2023/07/06 00:16:15;;;;;;;7.20;4.40;;;;;;;;;;5014629;28;93044;-74
2023/07/06 00:18:42;;;;;;;8.73;4.85;;;;;;;;;;5014515;28;93447;-72
2023/07/06 00:21:08;;;;;;;12.02;4.55;;;;;;;;;;5014348;28;92477;-72
2023/07/06 00:23:34;;;;;;;13.38;5.47;;;;;;;;;;5012680;28;94827;-72
2023/07/06 00:26:02;;;;;;;10.00;4.82;;;;;;;;;;5016852;28;93529;-72
2023/07/06 00:28:28;;;;;;;15.25;5.45;;;;;;;;;;5014243;28;93106;-73
2023/07/06 00:31:01;;;;;;;17.65;5.35;;;;;;;;;;5013976;28;93492;-73
2023/07/06 00:33:28;;;;;;;11.77;4.72;;;;;;;;;;5014143;28;92468;-72
2023/07/06 00:35:55;;;;;;;9.98;4.82;;;;;;;;;;5014031;28;93377;-72
2023/07/06 00:38:23;;;;;;;11.50;5.20;;;;;;;;;;5013945;28;93637;-72
2023/07/06 00:40:51;;;;;;;12.75;5.53;;;;;;;;;;5014404;28;91715;-72
2023/07/06 00:43:21;;;;;;;15.68;4.97;;;;;;;;;;5013811;28;92606;-73
2023/07/06 00:45:50;;;;;;;15.35;5.30;;;;;;;;;;5013583;28;93500;-72
2023/07/06 00:48:21;;;;;;;14.05;5.70;;;;;;;;;;5015980;28;94929;-72
2023/07/06 00:50:51;;;;;;;14.10;5.07;;;;;;;;;;5013733;28;94117;-72
2023/07/06 00:53:17;;;;;;;13.27;5.43;;;;;;;;;;5014056;28;92679;-72
2023/07/06 00:55:44;;;;;;;10.98;4.45;;;;;;;;;;5013234;28;93387;-72
2023/07/06 00:58:22;;;;;;;15.10;5.82;;;;;;;;;;5014036;28;93484;-73
2023/07/06 01:00:50;;;;;;;13.27;4.95;;;;;;;;;;5013717;28;92402;-72
2023/07/06 01:03:19;;;;;;;13.38;5.00;;;;;;;;;;5014397;28;96633;-72
2023/07/06 01:05:47;;;;;;;12.90;5.53;;;;;;;;;;5014103;28;92818;-72
2023/07/06 01:08:16;;;;;;;14.35;5.32;;;;;;;;;;5016456;28;92470;-72
2023/07/06 01:10:43;;;;;;;12.95;5.07;;;;;;;;;;5013444;28;94084;-72
2023/07/06 01:13:10;;;;;;;19.90;5.13;;;;;;;;;;5012212;28;94819;-73
2023/07/06 01:15:48;;;;;;;13.88;5.32;;;;;;;;;;5013874;28;98526;-72
2023/07/06 01:18:22;;;;;;;17.40;5.80;;;;;;;;;;5012238;28;93423;-73
2023/07/06 01:20:56;;;;;;;14.95;5.80;;;;;;;;;;5014433;28;92424;-72
2023/07/06 01:23:34;;;;;;;16.90;5.53;;;;;;;;;;5017113;28;92401;-73
2023/07/06 01:26:07;;;;;;;19.25;6.25;;;;;;;;;;5016770;28;94659;-72
2023/07/06 01:28:40;;;;;;;19.63;6.10;;;;;;;;;;5017027;28;92430;-72
2023/07/06 01:31:23;;;;;;;16.17;5.53;;;;;;;;;;5020235;28;94456;-74
2023/07/06 01:34:08;;;;;;;10.65;5.35;;;;;;;;;;5017009;28;92826;-74
2023/07/06 01:36:38;;;;;;;16.77;5.60;;;;;;;;;;5016468;28;93292;-74
2023/07/06 01:39:11;;;;;;;17.10;5.90;;;;;;;;;;5013724;28;95789;-74
2023/07/06 01:41:40;;;;;;;16.27;6.10;;;;;;;;;;5016382;28;92409;-74
2023/07/06 01:44:11;;;;;;;16.15;5.88;;;;;;;;;;5016814;28;93188;-74
2023/07/06 01:46:56;;;;;;;17.98;6.18;;;;;;;;;;5016806;28;93415;-74
2023/07/06 01:49:22;;;;;;;15.40;6.15;;;;;;;;;;5016619;28;92563;-74
2023/07/06 01:52:08;;;;;;;17.45;5.95;;;;;;;;;;5016513;28;93213;-74
2023/07/06 01:54:51;;;;;;;18.23;6.32;;;;;;;;;;5019622;28;92397;-74
2023/07/06 01:57:25;;;;;;;18.23;5.85;;;;;;;;;;5016870;28;93359;-73
2023/07/06 01:59:53;;;;;;;21.25;5.75;;;;;;;;;;5016581;28;93809;-74
2023/07/06 02:02:20;;;;;;;14.07;5.78;;;;;;;;;;5016086;28;92768;-74
2023/07/06 02:04:47;;;;;;;17.52;6.22;;;;;;;;;;5014932;28;94819;-74
2023/07/06 02:07:16;;;;;;;20.58;5.65;;;;;;;;;;5015974;28;93517;-74
2023/07/06 02:09:43;;;;;;;19.98;5.15;;;;;;;;;;5016373;28;92417;-74
2023/07/06 02:12:12;;;;;;;13.95;5.72;;;;;;;;;;5016347;28;93011;-74
2023/07/06 02:14:40;;;;;;;15.93;5.35;;;;;;;;;;5016289;28;94422;-74
2023/07/06 02:17:07;;;;;;;10.70;4.75;;;;;;;;;;5019505;28;92460;-74
2023/07/06 02:19:35;;;;;;;16.88;5.78;;;;;;;;;;5016168;28;94477;-74
2023/07/06 02:22:05;;;;;;;25.23;5.53;;;;;;;;;;5016508;28;91654;-74
2023/07/06 02:24:31;;;;;;;12.40;4.78;;;;;;;;;;5015565;28;92984;-74
2023/07/06 02:26:58;;;;;;;17.00;5.78;;;;;;;;;;5015531;28;93455;-74
2023/07/06 02:29:24;;;;;;;17.42;5.63;;;;;;;;;;5014243;28;94970;-73
2023/07/06 02:31:54;;;;;;;21.42;5.40;;;;;;;;;;5015681;28;95732;-74
2023/07/06 02:34:26;;;;;;;19.33;5.32;;;;;;;;;;5015970;28;93460;-73
2023/07/06 02:36:53;;;;;;;14.57;5.20;;;;;;;;;;5015772;28;92640;-73
2023/07/06 02:39:23;;;;;;;12.38;5.45;;;;;;;;;;5019272;28;95808;-73
2023/07/06 02:41:53;;;;;;;16.58;5.57;;;;;;;;;;5015559;28;92496;-73
2023/07/06 02:44:21;;;;;;;19.60;5.05;;;;;;;;;;5016024;28;93402;-73
2023/07/06 02:46:47;;;;;;;12.30;4.75;;;;;;;;;;5016511;28;92755;-73
2023/07/06 02:49:14;;;;;;;14.98;4.53;;;;;;;;;;5015345;28;92378;-73
2023/07/06 02:51:41;;;;;;;15.98;5.68;;;;;;;;;;5015816;28;92416;-73
2023/07/06 02:54:09;;;;;;;11.88;4.90;;;;;;;;;;5013930;28;94831;-73
2023/07/06 02:56:36;;;;;;;17.45;5.68;;;;;;;;;;5015502;28;92672;-73
2023/07/06 02:59:03;;;;;;;25.63;5.90;;;;;;;;;;5015830;28;93353;-73
2023/07/06 03:01:29;;;;;;;13.25;5.45;;;;;;;;;;5017074;28;93438;-73
2023/07/06 03:03:56;;;;;;;23.02;6.35;;;;;;;;;;5015459;28;93373;-74
2023/07/06 03:06:22;;;;;;;15.60;5.75;;;;;;;;;;5015693;28;93114;-73
2023/07/06 03:08:48;;;;;;;12.75;4.93;;;;;;;;;;5015236;28;92536;-73
2023/07/06 03:11:16;;;;;;;15.10;5.25;;;;;;;;;;5015870;28;93145;-73
2023/07/06 03:13:42;;;;;;;16.27;5.93;;;;;;;;;;5015377;28;94482;-73
2023/07/06 03:16:09;;;;;;;15.02;5.28;;;;;;;;;;5015491;28;92429;-73
2023/07/06 03:18:36;;;;;;;14.63;5.78;;;;;;;;;;5013688;28;94784;-73
2023/07/06 03:21:02;;;;;;;11.13;5.07;;;;;;;;;;5018311;28;93916;-73
2023/07/06 03:23:29;;;;;;;12.15;5.45;;;;;;;;;;5015199;28;93409;-73
2023/07/06 03:25:56;;;;;;;20.95;5.50;;;;;;;;;;5014736;28;93588;-73
2023/07/06 03:28:28;;;;;;;15.15;6.00;;;;;;;;;;5015014;28;92464;-74
2023/07/06 03:30:56;;;;;;;22.15;5.45;;;;;;;;;;5015039;28;93029;-74
2023/07/06 03:33:24;;;;;;;19.08;6.07;;;;;;;;;;5014901;28;94507;-73
2023/07/06 03:35:53;;;;;;;16.58;6.20;;;;;;;;;;5015863;28;91676;-74
2023/07/06 03:38:21;;;;;;;12.73;5.70;;;;;;;;;;5014949;28;92499;-73
2023/07/06 03:40:48;;;;;;;16.77;5.65;;;;;;;;;;5013531;28;93047;-73
2023/07/06 03:43:16;;;;;;;21.27;6.70;;;;;;;;;;5015709;28;94802;-73
2023/07/06 03:45:47;;;;;;;16.48;6.50;;;;;;;;;;5014545;28;93490;-73
2023/07/06 03:48:15;;;;;;;24.30;5.93;;;;;;;;;;5033563;28;92445;-73
2023/07/06 03:50:43;;;;;;;13.25;5.53;;;;;;;;;;5034835;27;93052;-73
2023/07/06 03:53:10;;;;;;;19.10;6.13;;;;;;;;;;5034344;27;93439;-73
2023/07/06 03:55:37;;;;;;;16.95;6.63;;;;;;;;;;5031489;28;92535;-73
2023/07/06 03:58:03;;;;;;;17.20;5.95;;;;;;;;;;5014450;28;93258;-73
2023/07/06 04:00:33;;;;;;;18.05;5.93;;;;;;;;;;5015085;28;92641;-73
2023/07/06 04:03:03;;;;;;;16.92;5.60;;;;;;;;;;5014459;28;92392;-73
2023/07/06 04:05:32;;;;;;;15.70;5.70;;;;;;;;;;5017479;28;92366;-73
2023/07/06 04:08:03;;;;;;;11.68;5.68;;;;;;;;;;5012597;28;94820;-73
2023/07/06 04:10:30;;;;;;;23.52;6.90;;;;;;;;;;5014226;28;95572;-73
2023/07/06 04:12:57;;;;;;;24.25;6.72;;;;;;;;;;5014146;28;93300;-73
2023/07/06 04:15:23;;;;;;;23.67;6.35;;;;;;;;;;5014206;28;92605;-73
2023/07/06 04:17:53;;;;;;;12.77;5.72;;;;;;;;;;5014362;28;93226;-73
2023/07/06 04:20:21;;;;;;;14.95;5.63;;;;;;;;;;5012769;28;93335;-73
2023/07/06 04:22:48;;;;;;;18.08;6.15;;;;;;;;;;5014579;28;92407;-73
2023/07/06 04:25:18;;;;;;;14.73;5.05;;;;;;;;;;5014440;28;92136;-73
2023/07/06 04:27:45;;;;;;;12.75;5.70;;;;;;;;;;5016844;28;93464;-73
2023/07/06 04:30:12;;;;;;;18.63;5.70;;;;;;;;;;5013954;28;93219;-73
2023/07/06 04:32:39;;;;;;;24.25;6.25;;;;;;;;;;5012173;28;95898;-73
2023/07/06 04:35:06;;;;;;;22.33;5.80;;;;;;;;;;5014275;28;92673;-73
2023/07/06 04:37:33;;;;;;;25.08;6.43;;;;;;;;;;5013967;28;93490;-73
2023/07/06 04:40:01;;;;;;;17.13;6.03;;;;;;;;;;5013750;28;94427;-73
2023/07/06 04:42:28;;;;;;;18.52;6.07;;;;;;;;;;5014175;28;92494;-73
2023/07/06 04:44:54;;;;;;;20.20;6.75;;;;;;;;;;5014073;28;93187;-73
2023/07/06 04:47:23;;;;;;;18.25;6.43;;;;;;;;;;5014007;28;93277;-73
2023/07/06 04:49:50;;;;;;;18.48;5.78;;;;;;;;;;5017252;28;91692;-73
2023/07/06 04:52:16;;;;;;;24.58;6.10;;;;;;;;;;5013761;28;96514;-74
2023/07/06 04:54:43;;;;;;;15.82;5.55;;;;;;;;;;5013334;28;92518;-73
2023/07/06 04:57:13;;;;;;;28.85;6.63;;;;;;;;;;5014453;28;94876;-73
2023/07/06 04:59:40;;;;;;;22.95;6.45;;;;;;;;;;5017212;28;94500;-73
2023/07/06 05:02:07;;;;;;;17.23;5.82;;;;;;;;;;5017699;28;92425;-73
2023/07/06 05:04:33;;;;;;;21.73;6.45;;;;;;;;;;5017306;28;93230;-73
2023/07/06 05:07:00;;;;;;;22.63;6.40;;;;;;;;;;5017128;28;93618;-73
2023/07/06 05:09:26;;;;;;;19.42;6.75;;;;;;;;;;5016998;28;92383;-73
2023/07/06 05:11:53;;;;;;;25.67;6.55;;;;;;;;;;5019830;28;93115;-73
2023/07/06 05:14:20;;;;;;;15.10;5.88;;;;;;;;;;5017288;28;91740;-73
2023/07/06 05:16:46;;;;;;;20.27;6.55;;;;;;;;;;5017337;28;92398;-73
2023/07/06 05:19:15;;;;;;;18.77;6.13;;;;;;;;;;5016706;28;93455;-73
2023/07/06 05:21:42;;;;;;;14.63;6.25;;;;;;;;;;5015241;28;94844;-73
2023/07/06 05:24:08;;;;;;;25.20;7.15;;;;;;;;;;5016817;28;97233;-73
2023/07/06 05:26:34;;;;;;;26.33;7.07;;;;;;;;;;5016026;28;94435;-73
2023/07/06 05:29:01;;;;;;;20.58;6.50;;;;;;;;;;5016505;28;92417;-73
2023/07/06 05:31:27;;;;;;;25.30;7.70;;;;;;;;;;5019782;28;93157;-73
2023/07/06 05:33:54;;;;;;;26.85;8.10;;;;;;;;;;5016390;28;92469;-73
2023/07/06 05:36:20;;;;;;;21.83;6.72;;;;;;;;;;5016667;28;93086;-73
2023/07/06 05:38:46;;;;;;;24.95;7.68;;;;;;;;;;5017307;28;93739;-73
2023/07/06 05:41:13;;;;;;;23.80;6.65;;;;;;;;;;5016177;28;92559;-73
2023/07/06 05:43:39;;;;;;;27.92;8.38;;;;;;;;;;5016598;28;93116;-73
2023/07/06 05:46:06;;;;;;;24.73;7.03;;;;;;;;;;5014654;28;96136;-73
2023/07/06 05:48:32;;;;;;;27.13;7.90;;;;;;;;;;5016636;28;92472;-73
2023/07/06 05:50:59;;;;;;;29.83;8.40;;;;;;;;;;5016388;28;93019;-73
2023/07/06 05:53:25;;;;;;;22.92;8.68;;;;;;;;;;5019640;28;93544;-73
2023/07/06 05:55:51;;;;;;;30.88;8.63;;;;;;;;;;5014913;28;92656;-73
2023/07/06 05:58:18;;;;;;;28.08;9.38;;;;;;;;;;5016306;28;93981;-73
2023/07/06 06:00:44;;;;;;;25.98;9.07;;;;;;;;;;5016184;28;92414;-73
2023/07/06 06:03:11;;;;;;;33.85;10.18;;;;;;;;;;5017099;28;94245;-73
2023/07/06 06:05:39;;;;;;;35.97;9.90;;;;;;;;;;5015059;28;93447;-73
2023/07/06 06:08:06;;;;;;;29.65;11.00;;;;;;;;;;5015857;28;92394;-73
2023/07/06 06:10:33;;;;;;;41.13;11.18;;;;;;;;;;5013682;28;94903;-73
2023/07/06 06:12:59;;;;;;;34.33;10.07;;;;;;;;;;5015127;28;93898;-73
2023/07/06 06:15:27;;;;;;;34.03;11.35;;;;;;;;;;5018177;28;92427;-73
2023/07/06 06:17:53;;;;;;;28.70;9.77;;;;;;;;;;5015265;28;92470;-73
2023/07/06 06:20:19;;;;;;;30.17;10.27;;;;;;;;;;5014581;28;93373;-74
2023/07/06 06:22:46;;;;;;;32.53;10.30;;;;;;;;;;5015322;28;93090;-73
2023/07/06 06:25:12;;;;;;;33.28;10.80;;;;;;;;;;5014994;28;93484;-73
2023/07/06 06:27:39;;;;;;;35.25;10.27;;;;;;;;;;5015194;28;91838;-73
2023/07/06 06:30:05;;;;;;;31.20;10.23;;;;;;;;;;5014950;28;92531;-73
2023/07/06 06:32:35;;;;;;;35.28;10.32;;;;;;;;;;5013598;28;93749;-73
2023/07/06 06:35:02;;;;;;;36.92;11.60;;;;;;;;;;5013317;28;94815;-74
2023/07/06 06:37:29;;;;;;;46.38;12.13;;;;;;;;;;5017430;28;96076;-73
2023/07/06 06:39:55;;;;;;;36.50;12.30;;;;;;;;;;5014567;28;92444;-73
2023/07/06 06:42:21;;;;;;;37.47;12.88;;;;;;;;;;5014796;28;93307;-73
2023/07/06 06:44:49;;;;;;;27.60;12.00;;;;;;;;;;5014047;28;93525;-73
2023/07/06 06:47:15;;;;;;;27.17;11.43;;;;;;;;;;5015338;28;92484;-74
2023/07/06 06:49:42;;;;;;;39.17;13.70;;;;;;;;;;5014757;28;93290;-74
2023/07/06 06:52:10;;;;;;;38.40;12.77;;;;;;;;;;5015296;28;93881;-74
2023/07/06 06:54:36;;;;;;;38.20;13.55;;;;;;;;;;5014886;28;92465;-74
2023/07/06 06:57:04;;;;;;;34.42;12.23;;;;;;;;;;5014449;28;93087;-73
2023/07/06 06:59:32;;;;;;;34.83;13.20;;;;;;;;;;5016218;28;95629;-73
2023/07/06 07:02:01;;;;;;;35.38;13.43;;;;;;;;;;5014293;28;95520;-73
2023/07/06 07:04:29;;;;;;;34.33;13.25;;;;;;;;;;5014256;28;93477;-73
2023/07/06 07:06:56;;;;;;;37.13;13.68;;;;;;;;;;5014543;28;92528;-73
2023/07/06 07:09:23;;;;;;;39.17;13.38;;;;;;;;;;5014415;28;93300;-73
2023/07/06 07:11:49;;;;;;;39.40;14.68;;;;;;;;;;5014344;28;93430;-73
2023/07/06 07:14:17;;;;;;;30.60;13.80;;;;;;;;;;5014655;28;92801;-73
2023/07/06 07:16:44;;;;;;;31.02;14.20;;;;;;;;;;5015252;28;93076;-73
2023/07/06 07:19:10;;;;;;;29.92;14.07;;;;;;;;;;5012967;28;94304;-73
2023/07/06 07:21:37;;;;;;;35.45;14.02;;;;;;;;;;5015825;28;92425;-74
2023/07/06 07:24:04;;;;;;;37.55;13.38;;;;;;;;;;5012673;28;95992;-73
2023/07/06 07:26:30;;;;;;;33.30;13.32;;;;;;;;;;5013603;28;92585;-73
2023/07/06 07:28:57;;;;;;;38.10;13.88;;;;;;;;;;5014301;28;93120;-73
2023/07/06 07:31:25;;;;;;;26.88;13.88;;;;;;;;;;5014011;28;93582;-74
2023/07/06 07:33:52;;;;;;;30.88;13.65;;;;;;;;;;5014409;28;92469;-73
2023/07/06 07:36:19;;;;;;;23.77;12.57;;;;;;;;;;5013924;28;92491;-74
2023/07/06 07:38:46;;;;;;;30.42;13.68;;;;;;;;;;5014107;28;93826;-74
2023/07/06 07:41:13;;;;;;;29.55;12.25;;;;;;;;;;5017223;28;91655;-73
2023/07/06 07:43:46;;;;;;;27.70;12.30;;;;;;;;;;5013834;28;93489;-74
2023/07/06 07:46:14;;;;;;;23.42;11.57;;;;;;;;;;5013640;28;92489;-73
2023/07/06 07:48:45;;;;;;;31.33;12.63;;;;;;;;;;5012619;28;94793;-74
2023/07/06 07:51:13;;;;;;;23.55;10.60;;;;;;;;;;5013950;28;93628;-73
2023/07/06 07:53:40;;;;;;;19.85;10.00;;;;;;;;;;5014075;28;93817;-74
2023/07/06 07:56:07;;;;;;;23.90;9.88;;;;;;;;;;5013284;28;93240;-73
2023/07/06 07:58:36;;;;;;;28.05;9.93;;;;;;;;;;5013765;28;92638;-73
2023/07/06 08:01:05;;;;;;;24.98;9.70;;;;;;;;;;5014657;28;92407;-74
2023/07/06 08:03:32;;;;;;;18.83;9.57;;;;;;;;;;5017403;28;93161;-74
2023/07/06 08:06:05;;;;;;;25.83;10.18;;;;;;;;;;5013420;28;91930;-74
2023/07/06 08:08:33;;;;;;;23.40;9.48;;;;;;;;;;5012565;28;95357;-73
2023/07/06 08:11:03;;;;;;;19.23;8.85;;;;;;;;;;5013723;28;93527;-73
2023/07/06 08:13:31;;;;;;;23.05;8.48;;;;;;;;;;5012758;28;95124;-74
2023/07/06 08:15:58;;;;;;;23.90;8.32;;;;;;;;;;5014456;28;95548;-74
2023/07/06 08:18:25;;;;;;;22.83;7.85;;;;;;;;;;4994162;28;93406;-74
2023/07/06 08:20:53;;;;;;;25.85;7.72;;;;;;;;;;4993939;28;92390;-74
2023/07/06 08:23:45;;;;;;;23.60;8.95;;;;;;;;;;4993958;28;93298;-74
2023/07/06 08:26:12;;;;;;;26.75;7.53;;;;;;;;;;4996573;28;93531;-74
2023/07/06 08:28:39;;;;;;;18.48;7.30;;;;;;;;;;4994095;28;94052;-74
2023/07/06 08:31:19;;;;;;;26.75;7.97;;;;;;;;;;4994140;28;92800;-74
2023/07/06 08:33:47;;;;;;;20.80;7.03;;;;;;;;;;4994546;28;92636;-74
2023/07/06 08:36:15;;;;;;;18.45;7.85;;;;;;;;;;4993986;28;93470;-74
2023/07/06 08:38:43;;;;;;;19.45;8.05;;;;;;;;;;4992252;28;96014;-74
2023/07/06 08:41:17;;;;;;;16.98;7.63;;;;;;;;;;4993782;28;93411;-74
2023/07/06 08:43:46;;;;;;;16.63;7.50;;;;;;;;;;4994054;28;93456;-74
2023/07/06 08:46:12;;;;;;;23.73;6.80;;;;;;;;;;4994763;28;93445;-74
2023/07/06 08:48:39;;;;;;;22.40;6.68;;;;;;;;;;5016676;28;92969;-74
2023/07/06 08:51:15;;;;;;;20.63;6.05;;;;;;;;;;5013535;28;93475;-74
2023/07/06 08:53:47;;;;;;;14.82;5.95;;;;;;;;;;5014213;28;92405;-74
2023/07/06 08:56:15;;;;;;;21.23;5.90;;;;;;;;;;5014057;28;93639;-74
2023/07/06 08:58:42;;;;;;;24.98;7.03;;;;;;;;;;5013582;28;93533;-74
2023/07/06 09:01:12;;;;;;;19.27;5.95;;;;;;;;;;5013456;28;92427;-74
2023/07/06 09:03:49;;;;;;;24.90;6.30;;;;;;;;;;5012139;28;95162;-74
2023/07/06 09:06:21;;;;;;;12.63;6.05;;;;;;;;;;5013462;28;93355;-73
2023/07/06 09:08:49;;;;;;;17.67;5.25;;;;;;;;;;5013911;28;92514;-74
2023/07/06 09:11:17;;;;;;;13.38;5.00;;;;;;;;;;5016405;28;93375;-73
2023/07/06 09:13:49;;;;;;;14.27;5.07;;;;;;;;;;5013581;28;92604;-74
2023/07/06 09:16:19;;;;;;;20.83;6.03;;;;;;;;;;5014089;28;93199;-74
2023/07/06 09:18:50;;;;;;;14.07;5.20;;;;;;;;;;5013279;28;94723;-74
2023/07/06 09:21:20;;;;;;;17.83;5.20;;;;;;;;;;5013923;28;91871;-74
2023/07/06 09:23:47;;;;;;;9.65;4.43;;;;;;;;;;5013534;28;92435;-74
2023/07/06 09:26:36;;;;;;;20.42;5.72;;;;;;;;;;5012561;28;93615;-75
2023/07/06 09:29:11;;;;;;;17.63;5.13;;;;;;;;;;5011951;28;94912;-74
2023/07/06 09:31:38;;;;;;;32.45;6.57;;;;;;;;;;5016137;28;95861;-74
2023/07/06 09:34:10;;;;;;;14.63;6.25;;;;;;;;;;5013302;28;92605;-74
2023/07/06 09:36:36;;;;;;;25.45;6.85;;;;;;;;;;5013455;28;94286;-74
2023/07/06 09:39:04;;;;;;;10.77;6.82;;;;;;;;;;5013029;28;93433;-74
2023/07/06 09:41:32;;;;;;;15.52;6.13;;;;;;;;;;5013876;28;92446;-74
2023/07/06 09:44:00;;;;;;;15.85;5.63;;;;;;;;;;5016683;28;93721;-74
2023/07/06 09:46:30;;;;;;;14.90;6.78;;;;;;;;;;5017166;28;92681;-74
2023/07/06 09:48:56;;;;;;;16.15;6.97;;;;;;;;;;5016421;28;92485;-74
2023/07/06 09:51:32;;;;;;;11.57;5.85;;;;;;;;;;5016454;28;93515;-74
2023/07/06 09:54:02;;;;;;;13.52;5.30;;;;;;;;;;5017831;28;95788;-74
2023/07/06 09:56:29;;;;;;;12.75;5.47;;;;;;;;;;5016261;28;95551;-74
2023/07/06 09:58:57;;;;;;;18.38;6.78;;;;;;;;;;5015904;28;93630;-75
2023/07/06 10:01:41;;;;;;;15.00;5.03;;;;;;;;;;5001678;28;92454;-75
2023/07/06 10:04:08;;;;;;;17.45;5.32;;;;;;;;;;4996139;28;93291;-74
2023/07/06 10:06:53;;;;;;;13.57;5.68;;;;;;;;;;4996060;28;93452;-74
2023/07/06 10:09:24;;;;;;;10.98;4.97;;;;;;;;;;4996462;28;92859;-74
2023/07/06 10:11:55;;;;;;;13.65;5.53;;;;;;;;;;4996582;28;93329;-75
2023/07/06 10:14:26;;;;;;;9.93;5.70;;;;;;;;;;4996597;28;95815;-75
2023/07/06 10:17:02;;;;;;;15.30;5.10;;;;;;;;;;5007374;28;92394;-74
2023/07/06 10:19:36;;;;;;;14.30;4.78;;;;;;;;;;5014223;28;96112;-74
2023/07/06 10:22:26;;;;;;;19.10;6.07;;;;;;;;;;5015902;28;92454;-74
2023/07/06 10:25:11;;;;;;;14.30;5.40;;;;;;;;;;5013313;28;93242;-75
2023/07/06 10:27:43;;;;;;;14.23;5.30;;;;;;;;;;5014975;28;93598;-75
2023/07/06 10:30:19;;;;;;;15.27;5.50;;;;;;;;;;5015890;28;92447;-74
2023/07/06 10:32:46;;;;;;;17.52;6.15;;;;;;;;;;5015462;28;93297;-74
2023/07/06 10:35:33;;;;;;;13.23;5.28;;;;;;;;;;5015659;28;93378;-74
2023/07/06 10:37:59;;;;;;;22.63;6.43;;;;;;;;;;5016181;28;91974;-75
2023/07/06 10:40:27;;;;;;;15.05;6.15;;;;;;;;;;5018847;28;92541;-75
2023/07/06 10:43:12;;;;;;;12.70;6.68;;;;;;;;;;5015597;28;92451;-74
2023/07/06 10:45:43;;;;;;;14.90;6.00;;;;;;;;;;5012713;28;95145;-75
2023/07/06 10:48:13;;;;;;;13.10;6.00;;;;;;;;;;5015270;28;93200;-74
2023/07/06 10:50:44;;;;;;;21.17;6.88;;;;;;;;;;5015477;28;92378;-74
2023/07/06 10:53:23;;;;;;;14.48;6.50;;;;;;;;;;5015290;28;93154;-74
2023/07/06 10:56:04;;;;;;;24.17;6.75;;;;;;;;;;5014757;28;93396;-72
2023/07/06 10:58:33;;;;;;;21.38;6.00;;;;;;;;;;5015200;28;92457;-73
2023/07/06 11:01:03;;;;;;;22.38;6.05;;;;;;;;;;5013745;28;92411;-74
2023/07/06 11:03:31;;;;;;;17.13;6.28;;;;;;;;;;5018708;28;92767;-74
2023/07/06 11:06:05;;;;;;;14.45;5.22;;;;;;;;;;5015852;28;92425;-74
2023/07/06 11:08:53;;;;;;;14.65;5.07;;;;;;;;;;5015175;28;93589;-74
2023/07/06 11:11:20;;;;;;;10.20;4.82;;;;;;;;;;5009568;28;94850;-74
2023/07/06 11:13:51;;;;;;;16.00;5.88;;;;;;;;;;5015619;28;95320;-74
2023/07/06 11:16:21;;;;;;;16.73;5.32;;;;;;;;;;5015214;28;94055;-74
2023/07/06 11:18:51;;;;;;;17.75;5.55;;;;;;;;;;5014692;28;92673;-74
2023/07/06 11:21:39;;;;;;;14.23;5.43;;;;;;;;;;5014798;28;93286;-74
2023/07/06 11:24:09;;;;;;;14.73;4.55;;;;;;;;;;5014947;28;93251;-74
2023/07/06 11:26:39;;;;;;;19.38;5.20;;;;;;;;;;5018204;28;92368;-74
2023/07/06 11:29:08;;;;;;;13.97;4.57;;;;;;;;;;5015290;28;92460;-74
2023/07/06 11:31:45;;;;;;;9.50;4.03;;;;;;;;;;5014934;28;92692;-74
2023/07/06 11:34:30;;;;;;;10.02;4.03;;;;;;;;;;5015079;28;93356;-74
2023/07/06 11:37:03;;;;;;;15.13;4.47;;;;;;;;;;5012845;28;95845;-74
2023/07/06 11:39:49;;;;;;;12.70;4.22;;;;;;;;;;5014404;28;92508;-74
2023/07/06 11:42:27;;;;;;;17.70;4.43;;;;;;;;;;5014678;28;93080;-74
2023/07/06 11:44:54;;;;;;;12.85;3.63;;;;;;;;;;5014333;28;93448;-74
2023/07/06 11:47:30;;;;;;;14.30;3.30;;;;;;;;;;5018094;28;92479;-74
2023/07/06 11:50:00;;;;;;;8.43;2.58;;;;;;;;;;5014817;28;96374;-74
2023/07/06 11:52:31;;;;;;;14.02;3.17;;;;;;;;;;5014654;28;92474;-74
2023/07/06 11:55:14;;;;;;;16.13;3.15;;;;;;;;;;5015141;28;93638;-74
2023/07/06 11:58:18;;;;;;;7.53;2.35;;;;;;;;;;5013993;28;94227;-74
2023/07/06 12:00:51;;;;;;;5.65;1.80;;;;;;;;;;5013656;28;92430;-74
2023/07/06 12:03:26;;;;;;;4.50;1.75;;;;;;;;;;5012907;28;94891;-73
2023/07/06 12:05:56;;;;;;;6.20;1.77;;;;;;;;;;5013802;28;93673;-73
2023/07/06 12:08:28;;;;;;;4.07;1.50;;;;;;;;;;5012945;28;92744;-74
2023/07/06 12:11:06;;;;;;;8.90;2.00;;;;;;;;;;5016010;28;94390;-74
2023/07/06 12:13:34;;;;;;;7.45;1.48;;;;;;;;;;5013286;28;92482;-73
2023/07/06 12:16:13;;;;;;;6.60;1.80;;;;;;;;;;5015279;28;94134;-73
2023/07/06 12:18:40;;;;;;;5.18;1.60;;;;;;;;;;5032763;28;93371;-74
2023/07/06 12:21:19;;;;;;;10.82;2.28;;;;;;;;;;5035022;27;91736;-74
2023/07/06 12:23:46;;;;;;;5.22;1.88;;;;;;;;;;5034491;27;92612;-73
2023/07/06 12:26:13;;;;;;;5.43;1.52;;;;;;;;;;5033454;27;93473;-74
2023/07/06 12:28:42;;;;;;;7.38;1.35;;;;;;;;;;5032239;27;94929;-74
2023/07/06 12:31:09;;;;;;;12.35;1.77;;;;;;;;;;5034073;27;95617;-73
2023/07/06 12:33:36;;;;;;;5.38;1.73;;;;;;;;;;5036675;27;93415;-73
2023/07/06 12:36:03;;;;;;;6.40;1.77;;;;;;;;;;5034163;27;92350;-74
2023/07/06 12:38:30;;;;;;;7.20;1.63;;;;;;;;;;5033609;27;93659;-74
2023/07/06 12:41:12;;;;;;;12.30;1.90;;;;;;;;;;5034094;27;92402;-74
2023/07/06 12:43:39;;;;;;;5.47;1.40;;;;;;;;;;5032921;28;94481;-74
2023/07/06 12:46:06;;;;;;;2.13;1.10;;;;;;;;;;5032800;27;91697;-74
2023/07/06 12:48:33;;;;;;;6.35;1.35;;;;;;;;;;5014069;28;92463;-74
2023/07/06 12:51:09;;;;;;;3.63;1.15;;;;;;;;;;5013804;28;93469;-74
2023/07/06 12:53:35;;;;;;;3.90;1.10;;;;;;;;;;5011888;28;96169;-74
2023/07/06 12:56:06;;;;;;;10.65;1.58;;;;;;;;;;5016838;28;92434;-74
2023/07/06 12:58:35;;;;;;;3.75;1.23;;;;;;;;;;5013233;28;93637;-74
2023/07/06 13:01:02;;;;;;;2.72;1.13;;;;;;;;;;5014013;28;92395;-74
2023/07/06 13:03:30;;;;;;;4.13;1.55;;;;;;;;;;5013761;28;93387;-74
2023/07/06 13:05:57;;;;;;;5.47;1.40;;;;;;;;;;5013344;28;93394;-74
2023/07/06 13:08:24;;;;;;;6.85;1.70;;;;;;;;;;5013662;28;92485;-74
2023/07/06 13:11:02;;;;;;;2.63;0.90;;;;;;;;;;5014337;28;93268;-74
2023/07/06 13:13:34;;;;;;;7.20;1.30;;;;;;;;;;5013264;28;93684;-74
2023/07/06 13:16:06;;;;;;;2.15;1.00;;;;;;;;;;5013725;28;92463;-74
2023/07/06 13:18:34;;;;;;;3.67;0.95;;;;;;;;;;5018422;28;94815;-74
2023/07/06 13:21:02;;;;;;;3.50;1.10;;;;;;;;;;5017023;28;92661;-74
2023/07/06 13:23:29;;;;;;;6.85;1.48;;;;;;;;;;5016877;28;93614;-74
2023/07/06 13:25:55;;;;;;;3.05;1.40;;;;;;;;;;5016384;28;93462;-74
2023/07/06 13:28:23;;;;;;;3.92;0.95;;;;;;;;;;5017107;28;92465;-74
2023/07/06 13:30:50;;;;;;;3.90;1.27;;;;;;;;;;5016692;28;92981;-74
2023/07/06 13:33:18;;;;;;;1.65;1.08;;;;;;;;;;5016621;28;93445;-75
2023/07/06 13:35:44;;;;;;;3.92;1.30;;;;;;;;;;5017260;28;91876;-74
2023/07/06 13:38:13;;;;;;;3.08;1.02;;;;;;;;;;5016337;28;92566;-75
2023/07/06 13:40:40;;;;;;;3.60;1.33;;;;;;;;;;5019804;28;94613;-75
2023/07/06 13:43:11;;;;;;;2.85;1.20;;;;;;;;;;5015238;28;94767;-75
2023/07/06 13:45:40;;;;;;;6.38;1.30;;;;;;;;;;5016004;28;93826;-75
2023/07/06 13:48:08;;;;;;;4.72;1.08;;;;;;;;;;5016777;28;92527;-74
2023/07/06 13:50:35;;;;;;;5.03;1.40;;;;;;;;;;5016383;28;93303;-74
2023/07/06 13:53:02;;;;;;;5.22;1.38;;;;;;;;;;5016320;28;93528;-74
2023/07/06 13:55:44;;;;;;;2.55;0.95;;;;;;;;;;5016236;28;92450;-74
2023/07/06 13:58:11;;;;;;;4.07;1.30;;;;;;;;;;5016395;28;93088;-75
2023/07/06 14:00:38;;;;;;;1.77;1.00;;;;;;;;;;5019961;28;93949;-74
2023/07/06 14:03:04;;;;;;;5.40;1.38;;;;;;;;;;5014963;28;92714;-74
2023/07/06 14:05:31;;;;;;;1.77;1.17;;;;;;;;;;5014570;28;93209;-74
2023/07/06 14:07:57;;;;;;;3.20;1.08;;;;;;;;;;5014696;28;94840;-75
2023/07/06 14:10:24;;;;;;;3.78;1.20;;;;;;;;;;5014385;28;95860;-74
2023/07/06 14:12:52;;;;;;;3.15;1.38;;;;;;;;;;5014882;28;92447;-75
2023/07/06 14:15:19;;;;;;;3.88;1.20;;;;;;;;;;5016140;28;92482;-74
2023/07/06 14:17:46;;;;;;;3.22;1.10;;;;;;;;;;5014808;28;93075;-74
2023/07/06 14:20:15;;;;;;;3.25;1.27;;;;;;;;;;5015921;28;93865;-74
2023/07/06 14:22:42;;;;;;;2.13;1.05;;;;;;;;;;5019145;28;92502;-74
2023/07/06 14:25:27;;;;;;;5.22;1.35;;;;;;;;;;5016326;28;92882;-75
2023/07/06 14:27:54;;;;;;;4.72;0.80;;;;;;;;;;5015240;28;92632;-75
2023/07/06 14:30:22;;;;;;;2.50;1.23;;;;;;;;;;5015843;28;93189;-75
2023/07/06 14:32:51;;;;;;;3.08;1.38;;;;;;;;;;5014087;28;95817;-75
2023/07/06 14:35:18;;;;;;;3.93;1.43;;;;;;;;;;5015956;28;92466;-74
2023/07/06 14:37:46;;;;;;;2.53;1.10;;;;;;;;;;5015824;28;92897;-75
2023/07/06 14:40:13;;;;;;;2.35;1.10;;;;;;;;;;5015706;28;93302;-75
2023/07/06 14:42:39;;;;;;;5.47;1.10;;;;;;;;;;5015866;28;92478;-75
2023/07/06 14:45:06;;;;;;;1.20;1.10;;;;;;;;;;5018622;28;92944;-75